Time;durP1;ratioP1;P1;durP2;ratioP2;P2;SDS_P1;SDS_P2;PMS_P1;PMS_P2;Temp;Humidity;BMP_temperature;BMP_pressure;BME280_temperature;BME280_humidity;BME280_pressure;Samples;Min_cycle;Max_cycle;Signal;HPM_P1;HPM_P2
2023/08/18 00:01:23;;;;;;;19.50;6.75;;;16.70;99.90;;;;;;5041663;28;20024;-69
2023/08/18 00:03:48;;;;;;;19.17;6.63;;;16.80;99.90;;;;;;5059677;28;20142;-69
2023/08/18 00:06:14;;;;;;;15.63;5.60;;;16.80;99.90;;;;;;5029555;28;20029;-69
2023/08/18 00:08:40;;;;;;;14.43;6.13;;;16.90;99.90;;;;;;5026130;28;20032;-69
2023/08/18 00:11:05;;;;;;;18.83;6.40;;;17.00;99.90;;;;;;5060151;28;20032;-69
2023/08/18 00:13:31;;;;;;;19.13;6.18;;;17.10;99.90;;;;;;5046336;28;20092;-69
2023/08/18 00:15:57;;;;;;;18.63;6.55;;;17.10;99.90;;;;;;5044602;28;20038;-69
2023/08/18 00:18:22;;;;;;;16.15;6.25;;;17.10;99.90;;;;;;5028713;28;20029;-69
2023/08/18 00:20:50;;;;;;;16.92;6.88;;;17.20;99.90;;;;;;5037901;28;20060;-68
2023/08/18 00:23:15;;;;;;;16.35;6.53;;;17.20;99.90;;;;;;5037300;28;20064;-69
2023/08/18 00:25:41;;;;;;;16.90;5.50;;;17.30;99.90;;;;;;5035462;28;20129;-69
2023/08/18 00:28:07;;;;;;;17.67;6.45;;;17.40;99.90;;;;;;5034012;28;20524;-69
2023/08/18 00:30:32;;;;;;;15.30;6.07;;;17.40;99.90;;;;;;5030301;28;20033;-69
2023/08/18 00:32:58;;;;;;;16.02;4.85;;;17.40;99.90;;;;;;5019551;28;20113;-69
2023/08/18 00:35:24;;;;;;;14.18;6.20;;;17.50;99.90;;;;;;5028175;28;20021;-69
2023/08/18 00:37:49;;;;;;;19.70;6.30;;;17.50;99.90;;;;;;5039271;28;20543;-69
2023/08/18 00:40:16;;;;;;;21.27;6.82;;;17.60;99.90;;;;;;5039365;28;20469;-69
2023/08/18 00:42:42;;;;;;;14.90;6.93;;;17.60;99.90;;;;;;5049925;28;20412;-69
2023/08/18 00:45:08;;;;;;;17.67;5.95;;;17.60;99.90;;;;;;5040173;28;20032;-69
2023/08/18 00:47:34;;;;;;;16.08;5.90;;;17.60;99.90;;;;;;5055412;28;20070;-69
2023/08/18 00:50:01;;;;;;;16.20;6.30;;;17.70;99.90;;;;;;5024196;28;20310;-69
2023/08/18 00:52:27;;;;;;;16.90;6.68;;;17.70;99.90;;;;;;5019454;28;20559;-69
2023/08/18 00:54:53;;;;;;;15.10;5.35;;;17.80;99.90;;;;;;5033724;28;20106;-69
2023/08/18 00:57:20;;;;;;;18.58;6.68;;;17.80;99.90;;;;;;5045690;28;20462;-69
2023/08/18 00:59:47;;;;;;;19.30;5.75;;;17.80;99.90;;;;;;5034785;28;20033;-69
2023/08/18 01:02:13;;;;;;;11.63;5.93;;;17.80;99.90;;;;;;5035760;28;20029;-69
2023/08/18 01:04:39;;;;;;;18.80;5.88;;;17.80;99.90;;;;;;5032631;28;20539;-69
2023/08/18 01:07:05;;;;;;;15.23;6.60;;;17.80;99.90;;;;;;5024438;28;20037;-69
2023/08/18 01:09:31;;;;;;;19.85;6.47;;;17.90;99.90;;;;;;5018838;28;20334;-69
2023/08/18 01:12:06;;;;;;;15.65;7.20;;;17.90;99.90;;;;;;5018624;28;20124;-69
2023/08/18 01:15:00;;;;;;;16.10;7.07;;;17.90;99.90;;;;;;5024138;28;20044;-69
2023/08/18 01:17:34;;;;;;;22.63;8.80;;;17.90;99.90;;;;;;5036162;28;20489;-69
2023/08/18 01:20:00;;;;;;;17.27;7.63;;;18.00;99.90;;;;;;5018025;28;20461;-69
2023/08/18 01:22:27;;;;;;;11.90;6.28;;;18.00;99.90;;;;;;5051431;28;20033;-69
2023/08/18 01:25:01;;;;;;;18.20;7.53;;;18.00;99.90;;;;;;5032676;28;20037;-69
2023/08/18 01:27:31;;;;;;;18.08;8.38;;;18.00;99.90;;;;;;5036167;28;20033;-69
2023/08/18 01:29:57;;;;;;;18.02;7.43;;;18.00;99.90;;;;;;5032033;28;20104;-69
2023/08/18 01:32:27;;;;;;;18.80;8.40;;;18.10;99.90;;;;;;5035610;28;20037;-69
2023/08/18 01:34:53;;;;;;;23.27;9.00;;;18.10;99.90;;;;;;5017959;28;20049;-69
2023/08/18 01:37:20;;;;;;;16.02;7.88;;;18.10;99.90;;;;;;5015767;28;20036;-69
2023/08/18 01:39:46;;;;;;;20.13;5.93;;;18.10;99.90;;;;;;5026597;28;20044;-69
2023/08/18 01:42:13;;;;;;;12.00;6.30;;;18.20;99.90;;;;;;5037766;28;20597;-69
2023/08/18 01:44:39;;;;;;;17.77;6.60;;;18.10;99.90;;;;;;5033841;28;20480;-69
2023/08/18 01:47:05;;;;;;;15.05;5.47;;;18.20;99.90;;;;;;5038114;28;20118;-69
2023/08/18 01:49:30;;;;;;;17.05;6.00;;;18.20;99.90;;;;;;5018934;28;20492;-69
2023/08/18 01:51:56;;;;;;;14.45;6.97;;;18.20;99.90;;;;;;5034045;28;20048;-69
2023/08/18 01:54:22;;;;;;;14.35;5.70;;;18.10;99.90;;;;;;5054914;28;20086;-69
2023/08/18 01:56:48;;;;;;;21.75;5.68;;;18.20;99.90;;;;;;5023436;28;20256;-69
2023/08/18 01:59:14;;;;;;;13.80;6.28;;;18.20;99.90;;;;;;5016351;28;20036;-69
2023/08/18 02:01:40;;;;;;;11.73;5.13;;;18.20;99.90;;;;;;5040736;28;20032;-69
2023/08/18 02:04:06;;;;;;;14.07;5.90;;;18.20;99.90;;;;;;5030068;28;20032;-69
2023/08/18 02:06:32;;;;;;;11.35;5.32;;;18.20;99.90;;;;;;5021738;28;20121;-69
2023/08/18 02:08:57;;;;;;;16.73;7.28;;;18.20;99.90;;;;;;5042521;28;20114;-69
2023/08/18 02:11:23;;;;;;;17.88;6.90;;;18.20;99.90;;;;;;5057812;28;20029;-69
2023/08/18 02:13:49;;;;;;;18.63;8.20;;;18.20;99.90;;;;;;5030665;28;20032;-69
2023/08/18 02:16:14;;;;;;;22.17;10.23;;;18.20;99.90;;;;;;5025175;28;20622;-69
2023/08/18 02:18:40;;;;;;;23.10;9.50;;;18.20;99.90;;;;;;5039581;28;20029;-69
2023/08/18 02:21:06;;;;;;;18.52;9.35;;;18.20;99.90;;;;;;5023686;28;20048;-69
2023/08/18 02:23:31;;;;;;;27.98;11.73;;;18.20;99.90;;;;;;5040009;28;20107;-69
2023/08/18 02:26:05;;;;;;;21.00;10.63;;;18.20;99.90;;;;;;5022380;28;20036;-69
2023/08/18 02:28:31;;;;;;;21.73;11.23;;;18.10;99.90;;;;;;5014605;28;20026;-69
2023/08/18 02:31:02;;;;;;;22.75;11.73;;;18.10;99.90;;;;;;5020622;28;20180;-69
2023/08/18 02:33:29;;;;;;;30.13;11.05;;;18.10;99.90;;;;;;5043527;28;20049;-69
2023/08/18 02:35:54;;;;;;;25.48;11.68;;;18.10;99.90;;;;;;5016299;28;20380;-69
2023/08/18 02:38:20;;;;;;;21.80;11.77;;;18.10;99.90;;;;;;5020572;28;20036;-69
2023/08/18 02:40:46;;;;;;;23.02;11.40;;;18.00;99.90;;;;;;5026058;28;20113;-69
2023/08/18 02:43:12;;;;;;;31.63;13.23;;;18.00;99.90;;;;;;5044558;28;20524;-69
2023/08/18 02:45:38;;;;;;;27.42;11.25;;;18.00;99.90;;;;;;5041302;28;20028;-69
2023/08/18 02:48:04;;;;;;;21.05;10.27;;;17.90;99.90;;;;;;5027973;28;20025;-69
2023/08/18 02:50:29;;;;;;;24.80;11.20;;;17.90;99.90;;;;;;5023376;28;20509;-69
2023/08/18 02:52:55;;;;;;;20.92;11.30;;;17.80;99.90;;;;;;5029974;28;20033;-69
2023/08/18 02:55:21;;;;;;;24.23;11.18;;;17.70;99.90;;;;;;5032288;28;20139;-69
2023/08/18 02:57:46;;;;;;;17.92;9.45;;;17.70;99.90;;;;;;5033174;28;20037;-69
2023/08/18 03:00:12;;;;;;;19.33;10.73;;;17.70;99.90;;;;;;5024652;28;20123;-69
2023/08/18 03:02:38;;;;;;;21.10;9.48;;;17.60;99.90;;;;;;5026425;28;20074;-69
2023/08/18 03:05:04;;;;;;;23.65;10.13;;;17.60;99.90;;;;;;5042888;28;20512;-69
2023/08/18 03:07:30;;;;;;;19.83;10.10;;;17.60;99.90;;;;;;5042131;28;20025;-69
2023/08/18 03:09:56;;;;;;;22.67;10.23;;;17.60;99.90;;;;;;5041096;28;20465;-69
2023/08/18 03:12:22;;;;;;;19.20;8.82;;;17.50;99.90;;;;;;5029905;28;20119;-70
2023/08/18 03:14:47;;;;;;;18.08;9.23;;;17.50;99.90;;;;;;5028562;28;20051;-69
2023/08/18 03:17:13;;;;;;;18.30;9.10;;;17.50;99.90;;;;;;5027893;28;20030;-69
2023/08/18 03:19:39;;;;;;;16.50;9.20;;;17.50;99.90;;;;;;5023237;28;20107;-69
2023/08/18 03:22:04;;;;;;;22.67;10.95;;;17.50;99.90;;;;;;5032513;28;20110;-69
2023/08/18 03:24:30;;;;;;;25.13;11.38;;;17.40;99.90;;;;;;5058694;28;20025;-69
2023/08/18 03:26:56;;;;;;;26.85;12.40;;;17.50;99.90;;;;;;5055217;28;20178;-69
2023/08/18 03:29:21;;;;;;;24.00;12.82;;;17.50;99.90;;;;;;5029805;28;20777;-69
2023/08/18 03:31:47;;;;;;;22.17;11.27;;;17.40;99.90;;;;;;5058273;28;20032;-68
2023/08/18 03:34:12;;;;;;;21.52;13.30;;;17.40;99.90;;;;;;5036082;28;20033;-69
2023/08/18 03:36:38;;;;;;;27.55;13.90;;;17.50;99.90;;;;;;5045337;28;20403;-69
2023/08/18 03:39:05;;;;;;;23.27;13.60;;;17.40;99.90;;;;;;5028214;28;20033;-69
2023/08/18 03:41:31;;;;;;;26.15;14.93;;;17.40;99.90;;;;;;5046330;28;20037;-69
2023/08/18 03:43:58;;;;;;;25.58;14.43;;;17.40;99.90;;;;;;5057853;28;20064;-69
2023/08/18 03:46:28;;;;;;;26.67;14.25;;;17.40;99.90;;;;;;5039709;28;20021;-69
2023/08/18 03:48:54;;;;;;;20.20;13.57;;;17.40;99.90;;;;;;5032100;28;20037;-69
2023/08/18 03:51:20;;;;;;;25.85;13.90;;;17.40;99.90;;;;;;5020762;28;20065;-69
2023/08/18 03:53:46;;;;;;;28.90;13.95;;;17.50;99.90;;;;;;5020307;28;20521;-68
2023/08/18 03:56:12;;;;;;;25.38;13.80;;;17.50;99.90;;;;;;5042516;28;20033;-69
2023/08/18 03:58:38;;;;;;;25.90;12.38;;;17.60;99.90;;;;;;5054717;28;20081;-69
2023/08/18 04:01:06;;;;;;;22.60;10.43;;;17.70;99.90;;;;;;5039478;28;20164;-69
2023/08/18 04:03:34;;;;;;;20.92;9.50;;;17.70;99.90;;;;;;5028515;28;20090;-69
2023/08/18 04:06:00;;;;;;;22.50;11.40;;;17.80;99.90;;;;;;5052586;28;20112;-69
2023/08/18 04:08:25;;;;;;;22.17;11.82;;;17.80;99.90;;;;;;5060974;28;20119;-69
2023/08/18 04:10:51;;;;;;;18.65;10.38;;;17.80;99.90;;;;;;5052646;28;20379;-69
2023/08/18 04:13:17;;;;;;;20.13;10.63;;;17.90;99.90;;;;;;5039605;28;20036;-69
2023/08/18 04:15:42;;;;;;;19.23;9.90;;;18.00;99.90;;;;;;5035084;28;20036;-69
2023/08/18 04:18:08;;;;;;;11.52;6.47;;;18.00;99.90;;;;;;5050527;28;20836;-69
2023/08/18 04:20:35;;;;;;;17.05;10.20;;;18.10;99.90;;;;;;5036471;28;20064;-69
2023/08/18 04:23:01;;;;;;;23.38;12.07;;;18.10;99.90;;;;;;5049191;28;20037;-69
2023/08/18 04:25:26;;;;;;;30.85;14.82;;;18.00;99.90;;;;;;5057505;28;20517;-68
2023/08/18 04:27:52;;;;;;;34.50;16.63;;;17.90;99.90;;;;;;5025939;28;20419;-69
2023/08/18 04:30:18;;;;;;;25.17;16.60;;;17.80;99.90;;;;;;5038312;28;20376;-69
2023/08/18 04:32:43;;;;;;;27.75;16.30;;;17.80;99.90;;;;;;5027983;28;20129;-69
2023/08/18 04:35:09;;;;;;;32.70;16.63;;;17.80;99.90;;;;;;5015963;28;20477;-69
2023/08/18 04:37:35;;;;;;;33.67;17.17;;;17.70;99.90;;;;;;5017666;28;20036;-69
2023/08/18 04:40:03;;;;;;;26.60;16.92;;;17.70;99.90;;;;;;5044956;28;20078;-69
2023/08/18 04:42:28;;;;;;;30.67;16.08;;;17.70;99.90;;;;;;5060247;28;20052;-69
2023/08/18 04:44:54;;;;;;;21.52;14.40;;;17.80;99.90;;;;;;5049627;28;20113;-69
2023/08/18 04:47:20;;;;;;;22.60;11.88;;;17.90;99.90;;;;;;5035375;28;20044;-69
2023/08/18 04:49:45;;;;;;;23.38;11.93;;;17.90;99.90;;;;;;5048887;28;20487;-69
2023/08/18 04:52:11;;;;;;;26.08;13.80;;;17.90;99.90;;;;;;5041338;28;20055;-69
2023/08/18 04:54:36;;;;;;;36.05;19.92;;;18.00;99.90;;;;;;5059718;28;20121;-69
2023/08/18 04:57:07;;;;;;;30.70;15.60;;;18.00;99.90;;;;;;5060404;28;20029;-69
2023/08/18 04:59:32;;;;;;;31.90;16.55;;;18.00;99.90;;;;;;5017557;28;20037;-69
2023/08/18 05:01:58;;;;;;;31.52;18.42;;;18.00;99.90;;;;;;5036755;28;20099;-69
2023/08/18 05:04:24;;;;;;;35.00;19.08;;;18.10;99.90;;;;;;5039301;28;20035;-70
2023/08/18 05:06:49;;;;;;;33.72;18.95;;;18.10;99.90;;;;;;5057193;28;20491;-69
2023/08/18 05:09:15;;;;;;;30.75;18.27;;;18.10;99.90;;;;;;5059235;28;20036;-69
2023/08/18 05:11:41;;;;;;;32.17;17.13;;;18.20;99.90;;;;;;5054169;28;20131;-69
2023/08/18 05:14:06;;;;;;;31.75;15.25;;;18.30;99.90;;;;;;5055841;28;20052;-69
2023/08/18 05:16:32;;;;;;;39.92;22.83;;;18.40;99.90;;;;;;5030545;28;20412;-69
2023/08/18 05:19:01;;;;;;;38.85;22.52;;;18.40;99.90;;;;;;5033197;28;20157;-69
2023/08/18 05:21:27;;;;;;;39.08;22.60;;;18.50;99.90;;;;;;5030980;28;20029;-69
2023/08/18 05:23:52;;;;;;;38.63;21.70;;;18.60;99.90;;;;;;5047026;28;20839;-69
2023/08/18 05:26:18;;;;;;;36.00;22.08;;;18.70;99.90;;;;;;5036024;28;20028;-69
2023/08/18 05:28:44;;;;;;;36.95;21.35;;;18.80;99.90;;;;;;5033062;28;20556;-69
2023/08/18 05:31:10;;;;;;;39.03;21.90;;;19.00;99.90;;;;;;5028100;28;20132;-69
2023/08/18 05:33:37;;;;;;;36.63;21.75;;;19.00;99.90;;;;;;5040447;28;20076;-69
2023/08/18 05:36:04;;;;;;;43.80;23.30;;;19.20;99.90;;;;;;5053206;28;20028;-69
2023/08/18 05:38:30;;;;;;;32.05;20.05;;;19.20;99.90;;;;;;5022141;28;20021;-69
2023/08/18 05:41:16;;;;;;;30.98;20.30;;;19.20;99.90;;;;;;5041362;28;20082;-68
2023/08/18 05:43:41;;;;;;;35.85;21.02;;;19.30;99.90;;;;;;5047481;28;20147;-69
2023/08/18 05:46:08;;;;;;;36.97;21.73;;;19.40;99.90;;;;;;5037825;28;20085;-69
2023/08/18 05:48:34;;;;;;;37.70;20.35;;;19.30;99.90;;;;;;5018383;28;20059;-68
2023/08/18 05:51:00;;;;;;;37.03;21.35;;;19.30;99.90;;;;;;5018558;28;20037;-69
2023/08/18 05:53:26;;;;;;;34.95;19.83;;;19.30;99.90;;;;;;5042047;28;20115;-69
2023/08/18 05:55:52;;;;;;;33.75;18.88;;;19.40;99.90;;;;;;5056364;28;20404;-69
2023/08/18 05:58:18;;;;;;;35.67;19.48;;;19.40;99.90;;;;;;5056303;28;20403;-69
2023/08/18 06:00:44;;;;;;;33.92;19.15;;;19.40;99.90;;;;;;5037105;28;20029;-69
2023/08/18 06:03:10;;;;;;;29.05;17.50;;;19.40;99.90;;;;;;5040388;28;20366;-68
2023/08/18 06:05:36;;;;;;;30.90;18.73;;;19.30;99.90;;;;;;5018360;28;20031;-68
2023/08/18 06:08:02;;;;;;;34.20;19.13;;;19.10;99.90;;;;;;5042057;28;20024;-68
2023/08/18 06:10:27;;;;;;;32.55;19.40;;;19.10;99.90;;;;;;5047628;28;20021;-69
2023/08/18 06:12:53;;;;;;;34.05;19.38;;;19.00;99.90;;;;;;5037370;28;20040;-69
2023/08/18 06:15:20;;;;;;;34.65;19.75;;;19.00;99.90;;;;;;5047220;28;20067;-70
2023/08/18 06:17:47;;;;;;;30.60;19.35;;;19.00;99.90;;;;;;5028786;28;20817;-69
2023/08/18 06:20:13;;;;;;;35.90;22.60;;;19.00;99.90;;;;;;5054897;28;20108;-70
2023/08/18 06:22:39;;;;;;;40.80;23.98;;;19.00;99.90;;;;;;5041174;28;20120;-70
2023/08/18 06:25:07;;;;;;;35.65;23.65;;;18.90;99.90;;;;;;5034518;28;20099;-70
2023/08/18 06:27:32;;;;;;;38.40;24.30;;;18.90;99.90;;;;;;5038232;28;20139;-70
2023/08/18 06:29:58;;;;;;;43.53;24.73;;;18.90;99.90;;;;;;5014742;28;20051;-70
2023/08/18 06:32:24;;;;;;;43.67;26.42;;;18.90;99.90;;;;;;5035094;28;20181;-70
2023/08/18 06:34:52;;;;;;;46.90;26.52;;;18.90;99.90;;;;;;5051985;28;20036;-70
2023/08/18 06:37:18;;;;;;;45.53;25.65;;;19.00;99.90;;;;;;5054068;28;20028;-70
2023/08/18 06:39:44;;;;;;;43.35;25.50;;;19.00;99.90;;;;;;5030641;28;20390;-70
2023/08/18 06:42:11;;;;;;;42.50;26.17;;;19.10;99.90;;;;;;5029935;28;20021;-70
2023/08/18 06:44:37;;;;;;;48.92;26.73;;;19.20;99.90;;;;;;5051198;28;20063;-70
2023/08/18 06:47:03;;;;;;;44.42;26.95;;;19.20;99.90;;;;;;5022727;28;20103;-70
2023/08/18 06:49:28;;;;;;;45.47;27.40;;;19.30;99.90;;;;;;5028374;28;20053;-70
2023/08/18 06:51:54;;;;;;;43.60;27.75;;;19.20;99.90;;;;;;5043517;28;20510;-70
2023/08/18 06:54:20;;;;;;;48.08;29.65;;;19.10;99.90;;;;;;5020594;28;20041;-70
2023/08/18 06:56:45;;;;;;;51.78;30.33;;;19.10;99.90;;;;;;5032319;28;20033;-70
2023/08/18 06:59:15;;;;;;;52.47;29.05;;;19.10;99.90;;;;;;5023863;28;20057;-70
2023/08/18 07:01:41;;;;;;;46.85;28.80;;;19.30;99.90;;;;;;5031626;28;20512;-70
2023/08/18 07:04:08;;;;;;;46.92;27.73;;;19.40;99.90;;;;;;5022294;28;20473;-70
2023/08/18 07:06:34;;;;;;;48.95;29.13;;;19.40;99.90;;;;;;5032227;28;20021;-70
2023/08/18 07:09:00;;;;;;;52.30;30.20;;;19.50;99.90;;;;;;5052566;28;20033;-70
2023/08/18 07:11:26;;;;;;;48.47;29.23;;;19.60;99.90;;;;;;5049993;28;20020;-69
2023/08/18 07:13:52;;;;;;;50.40;30.23;;;19.70;99.90;;;;;;5030652;28;20130;-70
2023/08/18 07:16:17;;;;;;;47.22;27.60;;;19.70;99.90;;;;;;5031914;28;20026;-70
2023/08/18 07:18:43;;;;;;;43.78;28.10;;;19.60;99.90;;;;;;5028810;28;20029;-70
2023/08/18 07:21:08;;;;;;;44.67;28.98;;;19.50;99.90;;;;;;5021040;28;20480;-70
2023/08/18 07:23:34;;;;;;;48.55;29.02;;;19.40;99.90;;;;;;5047654;28;20033;-70
2023/08/18 07:25:59;;;;;;;44.53;28.92;;;19.20;99.90;;;;;;5024762;28;20036;-70
2023/08/18 07:28:25;;;;;;;43.63;28.88;;;19.10;99.90;;;;;;5030719;28;20109;-70
2023/08/18 07:30:51;;;;;;;42.10;30.15;;;19.00;99.90;;;;;;5035866;28;20064;-70
2023/08/18 07:33:17;;;;;;;47.13;28.50;;;19.10;99.90;;;;;;5048555;28;20024;-70
2023/08/18 07:35:42;;;;;;;44.45;27.10;;;19.00;99.90;;;;;;5043594;28;20033;-70
2023/08/18 07:38:08;;;;;;;44.67;28.33;;;19.00;99.90;;;;;;5029294;28;20033;-70
2023/08/18 07:40:34;;;;;;;51.08;29.63;;;18.90;99.90;;;;;;5026125;28;20461;-70
2023/08/18 07:42:59;;;;;;;45.40;28.92;;;18.90;99.90;;;;;;5027548;28;20451;-70
2023/08/18 07:45:26;;;;;;;48.58;30.05;;;18.80;99.90;;;;;;5029506;28;20517;-70
2023/08/18 07:47:52;;;;;;;44.08;27.92;;;18.70;99.90;;;;;;5025786;28;20642;-69
2023/08/18 07:50:18;;;;;;;45.42;29.23;;;18.70;99.90;;;;;;5029375;28;20223;-69
2023/08/18 07:52:44;;;;;;;48.17;30.75;;;18.60;99.90;;;;;;5022202;28;20032;-70
2023/08/18 07:55:09;;;;;;;50.63;30.33;;;18.60;99.90;;;;;;5023797;28;20029;-69
2023/08/18 07:57:37;;;;;;;45.53;30.30;;;18.50;99.90;;;;;;5026738;28;20028;-69
2023/08/18 08:00:08;;;;;;;48.65;28.95;;;18.60;99.90;;;;;;5018823;28;20049;-69
2023/08/18 08:02:35;;;;;;;;;;;18.60;99.90;;;;;;5024827;28;20021;-69
2023/08/18 08:05:01;;;;;;;40.92;26.02;;;18.80;99.90;;;;;;5032113;28;19912;-69
2023/08/18 08:07:26;;;;;;;45.78;29.75;;;18.90;99.90;;;;;;5052469;28;20101;-69
2023/08/18 08:09:56;;;;;;;45.78;30.35;;;18.90;99.90;;;;;;5034369;28;20072;-69
2023/08/18 08:12:22;;;;;;;45.50;31.40;;;18.90;99.90;;;;;;5030119;28;20032;-69
2023/08/18 08:14:47;;;;;;;52.28;30.80;;;18.80;99.90;;;;;;5028717;28;20437;-69
2023/08/18 08:17:13;;;;;;;49.85;29.65;;;18.80;99.90;;;;;;5018517;28;20029;-70
2023/08/18 08:19:39;;;;;;;49.72;30.92;;;18.90;99.90;;;;;;5014323;28;20022;-71
2023/08/18 08:22:09;;;;;;;50.88;31.50;;;18.80;99.90;;;;;;5019586;28;20033;-72
2023/08/18 08:24:35;;;;;;;54.25;34.20;;;18.70;99.90;;;;;;5022554;28;20440;-72
2023/08/18 08:27:00;;;;;;;53.63;32.22;;;18.70;99.90;;;;;;5023018;28;20119;-72
2023/08/18 08:29:26;;;;;;;52.33;33.92;;;18.70;99.90;;;;;;5008874;28;20044;-72
2023/08/18 08:31:51;;;;;;;56.97;33.65;;;18.60;99.90;;;;;;5031555;28;20111;-72
2023/08/18 08:34:17;;;;;;;50.50;32.55;;;18.70;99.90;;;;;;5020527;28;20041;-73
2023/08/18 08:36:43;;;;;;;56.10;32.17;;;18.70;99.90;;;;;;5018771;28;20039;-72
2023/08/18 08:39:09;;;;;;;50.42;32.78;;;18.80;99.90;;;;;;5016919;28;20033;-72
2023/08/18 08:41:34;;;;;;;53.72;34.97;;;18.80;99.90;;;;;;5024771;28;20116;-71
2023/08/18 08:44:00;;;;;;;54.63;33.83;;;18.70;99.90;;;;;;5016303;28;20037;-72
2023/08/18 08:46:26;;;;;;;51.80;33.95;;;18.70;99.90;;;;;;5017951;28;20025;-73
2023/08/18 08:48:54;;;;;;;61.20;35.33;;;18.70;99.90;;;;;;5027789;28;20044;-73
2023/08/18 08:51:21;;;;;;;54.85;36.70;;;18.70;99.90;;;;;;5029194;28;20434;-73
2023/08/18 08:53:49;;;;;;;52.13;34.20;;;18.70;99.90;;;;;;5022834;28;20241;-72
2023/08/18 08:56:17;;;;;;;55.80;35.00;;;18.80;99.90;;;;;;5035000;28;20492;-73
2023/08/18 08:58:43;;;;;;;56.95;35.53;;;18.70;99.90;;;;;;5025309;28;20059;-72
2023/08/18 09:01:09;;;;;;;59.30;36.90;;;18.70;99.90;;;;;;5021248;28;20167;-72
2023/08/18 09:03:35;;;;;;;57.45;34.33;;;18.80;99.90;;;;;;5025171;28;20079;-72
2023/08/18 09:06:01;;;;;;;55.13;35.45;;;18.80;99.90;;;;;;5022439;28;20033;-72
2023/08/18 09:08:27;;;;;;;55.15;34.17;;;18.90;99.90;;;;;;5024002;28;20512;-72
2023/08/18 09:10:54;;;;;;;58.72;36.03;;;19.00;99.90;;;;;;5020856;28;20018;-72
2023/08/18 09:13:20;;;;;;;55.67;35.50;;;19.00;99.90;;;;;;5020525;28;20468;-72
2023/08/18 09:15:47;;;;;;;56.20;35.47;;;18.90;99.90;;;;;;5021320;28;20059;-72
2023/08/18 09:18:13;;;;;;;53.45;35.45;;;19.00;99.90;;;;;;5022666;28;20404;-71
2023/08/18 09:20:40;;;;;;;54.38;35.88;;;19.00;99.90;;;;;;5022382;28;20535;-73
2023/08/18 09:23:06;;;;;;;60.10;36.63;;;19.10;99.90;;;;;;5033787;28;20032;-74
2023/08/18 09:25:34;;;;;;;58.42;36.80;;;19.20;99.90;;;;;;5030916;28;20039;-74
2023/08/18 09:28:00;;;;;;;55.85;34.70;;;19.20;99.90;;;;;;5033495;28;20028;-73
2023/08/18 09:30:26;;;;;;;56.50;36.35;;;19.30;99.90;;;;;;5025652;28;20460;-74
2023/08/18 09:32:52;;;;;;;61.22;37.80;;;19.40;99.90;;;;;;5000495;28;20096;-73
2023/08/18 09:35:21;;;;;;;59.65;36.63;;;19.50;99.90;;;;;;5006903;28;20036;-73
2023/08/18 09:37:59;;;;;;;54.63;35.83;;;19.60;99.90;;;;;;5013005;28;20443;-73
2023/08/18 09:40:26;;;;;;;60.97;36.05;;;19.70;99.90;;;;;;5022525;28;20049;-73
2023/08/18 09:42:51;;;;;;;54.20;36.97;;;19.90;99.90;;;;;;5016784;28;20021;-74
2023/08/18 09:45:22;;;;;;;55.85;35.70;;;20.10;99.90;;;;;;5031168;28;20385;-73
2023/08/18 09:47:50;;;;;;;57.85;35.72;;;20.30;99.90;;;;;;5031200;28;20532;-72
2023/08/18 09:50:17;;;;;;;55.38;37.10;;;20.50;99.90;;;;;;5042293;28;20412;-72
2023/08/18 09:52:46;;;;;;;57.30;35.92;;;20.70;99.90;;;;;;5039063;28;20091;-72
2023/08/18 09:55:14;;;;;;;54.28;37.60;;;21.00;99.90;;;;;;5026544;28;20037;-72
2023/08/18 09:58:01;;;;;;;52.17;35.80;;;21.50;99.90;;;;;;5027991;28;20021;-72
2023/08/18 10:00:27;;;;;;;55.67;36.72;;;21.90;99.90;;;;;;5034280;28;20033;-72
2023/08/18 10:02:55;;;;;;;54.60;35.13;;;22.00;99.90;;;;;;5024609;28;20036;-72
2023/08/18 10:05:21;;;;;;;50.80;34.65;;;22.30;99.90;;;;;;5030068;28;20115;-71
2023/08/18 10:07:47;;;;;;;49.42;33.10;;;22.20;99.90;;;;;;5023440;28;20151;-72
2023/08/18 10:10:14;;;;;;;48.20;33.88;;;22.30;99.90;;;;;;5018817;28;20094;-71
2023/08/18 10:12:41;;;;;;;48.80;32.70;;;22.40;99.90;;;;;;5034103;28;20495;-72
2023/08/18 10:15:08;;;;;;;51.30;34.47;;;22.40;99.90;;;;;;5036302;28;20047;-72
2023/08/18 10:17:33;;;;;;;50.90;34.33;;;22.70;99.90;;;;;;5027984;28;20025;-71
2023/08/18 10:20:00;;;;;;;46.88;31.50;;;22.80;99.90;;;;;;5024774;28;20037;-71
2023/08/18 10:22:30;;;;;;;42.88;31.48;;;22.80;99.90;;;;;;5019391;28;20060;-71
2023/08/18 10:24:56;;;;;;;46.38;30.75;;;23.20;99.90;;;;;;5033763;28;20029;-71
2023/08/18 10:27:32;;;;;;;45.75;30.65;;;23.40;99.90;;;;;;5030497;28;20044;-71
2023/08/18 10:30:22;;;;;;;46.85;31.45;;;23.60;99.90;;;;;;5031970;28;20069;-70
2023/08/18 10:32:47;;;;;;;49.38;31.25;;;23.60;99.90;;;;;;5030176;28;20037;-70
2023/08/18 10:35:28;;;;;;;49.17;33.15;;;23.60;99.90;;;;;;5032087;28;20051;-71
2023/08/18 10:38:04;;;;;;;43.20;30.13;;;23.40;99.90;;;;;;5027193;28;20107;-70
2023/08/18 10:40:38;;;;;;;42.28;29.80;;;23.20;99.90;;;;;;5033244;28;20051;-71
2023/08/18 10:43:08;;;;;;;50.25;32.22;;;23.00;99.90;;;;;;5032134;28;20032;-70
2023/08/18 10:45:34;;;;;;;51.10;32.58;;;22.90;99.90;;;;;;5030010;28;20036;-70
2023/08/18 10:48:03;;;;;;;50.60;32.33;;;22.90;99.90;;;;;;5034844;28;20037;-70
2023/08/18 10:50:30;;;;;;;44.60;30.63;;;23.40;99.90;;;;;;5033483;28;20095;-70
2023/08/18 10:52:57;;;;;;;45.95;31.42;;;24.10;99.90;;;;;;5033152;28;20302;-70
2023/08/18 10:55:23;;;;;;;42.50;28.13;;;25.80;99.90;;;;;;5027967;28;20150;-70
2023/08/18 10:57:49;;;;;;;40.63;28.60;;;27.20;99.90;;;;;;5021973;28;20492;-71
2023/08/18 11:00:18;;;;;;;36.15;24.85;;;27.40;99.90;;;;;;5023285;28;20065;-70
2023/08/18 11:02:45;;;;;;;40.53;26.92;;;27.00;99.90;;;;;;5032893;28;20021;-70
2023/08/18 11:05:11;;;;;;;36.63;24.73;;;26.30;99.90;;;;;;5034127;28;20119;-71
2023/08/18 11:07:37;;;;;;;35.25;24.38;;;26.00;99.90;;;;;;5036069;28;20135;-70
2023/08/18 11:10:14;;;;;;;35.72;25.08;;;26.50;99.90;;;;;;5022095;28;20516;-70
2023/08/18 11:12:41;;;;;;;40.20;24.92;;;26.10;99.90;;;;;;5031658;28;20021;-71
2023/08/18 11:15:07;;;;;;;34.22;22.80;;;25.40;99.90;;;;;;5029181;28;20041;-70
2023/08/18 11:17:33;;;;;;;33.58;24.15;;;24.80;99.90;;;;;;5035483;28;20110;-71
2023/08/18 11:19:58;;;;;;;35.95;24.67;;;24.90;99.90;;;;;;5038390;28;20091;-71
2023/08/18 11:22:25;;;;;;;33.88;23.45;;;24.90;99.90;;;;;;5021017;28;20033;-71
2023/08/18 11:24:51;;;;;;;34.10;23.17;;;25.00;99.90;;;;;;5018773;28;20022;-70
2023/08/18 11:27:16;;;;;;;33.72;22.92;;;25.00;99.90;;;;;;5025223;28;20082;-70
2023/08/18 11:29:43;;;;;;;32.65;21.63;;;24.70;99.90;;;;;;5024878;28;20194;-70
2023/08/18 11:32:10;;;;;;;28.02;20.38;;;25.20;99.90;;;;;;5031523;28;20058;-71
2023/08/18 11:34:36;;;;;;;35.38;21.50;;;25.90;99.90;;;;;;5026261;28;20504;-71
2023/08/18 11:37:02;;;;;;;32.80;21.17;;;26.70;99.90;;;;;;5028839;28;20029;-71
2023/08/18 11:39:31;;;;;;;33.42;21.30;;;26.70;99.90;;;;;;5034388;28;20210;-70
2023/08/18 11:41:57;;;;;;;30.13;19.83;;;26.90;99.90;;;;;;5044798;28;20463;-69
2023/08/18 11:44:23;;;;;;;28.45;19.73;;;26.90;99.90;;;;;;5032492;28;20041;-75
2023/08/18 11:46:50;;;;;;;29.65;20.15;;;26.90;99.90;;;;;;5022911;28;20030;-70
2023/08/18 11:49:17;;;;;;;27.23;18.50;;;27.10;99.90;;;;;;5022916;28;20484;-72
2023/08/18 11:52:00;;;;;;;31.60;21.25;;;27.50;99.90;;;;;;5018467;28;20534;-70
2023/08/18 11:54:30;;;;;;;26.55;19.20;;;27.00;99.90;;;;;;5024525;28;20041;-71
2023/08/18 11:56:57;;;;;;;28.77;19.60;;;26.90;99.90;;;;;;5023266;28;20474;-70
2023/08/18 11:59:23;;;;;;;27.15;18.98;;;27.00;99.90;;;;;;5031946;28;21870;-71
2023/08/18 12:02:06;;;;;;;27.20;19.17;;;26.70;99.90;;;;;;5029598;28;20028;-70
2023/08/18 12:04:32;;;;;;;25.02;17.70;;;26.50;99.90;;;;;;5026637;28;20067;-70
2023/08/18 12:06:58;;;;;;;24.60;17.30;;;26.30;99.90;;;;;;5024612;28;20104;-70
2023/08/18 12:09:25;;;;;;;25.85;18.08;;;26.60;99.90;;;;;;5028071;28;20037;-70
2023/08/18 12:11:51;;;;;;;26.17;18.10;;;26.80;99.90;;;;;;5021089;28;20030;-70
2023/08/18 12:14:18;;;;;;;23.17;16.88;;;27.30;99.90;;;;;;5019342;28;20033;-70
2023/08/18 12:16:44;;;;;;;24.48;17.17;;;27.60;99.90;;;;;;5029538;28;20090;-70
2023/08/18 12:19:11;;;;;;;24.15;16.00;;;28.10;99.90;;;;;;5034746;28;20037;-73
2023/08/18 12:21:37;;;;;;;25.85;17.73;;;28.30;99.90;;;;;;5041499;28;20025;-70
2023/08/18 12:24:04;;;;;;;29.48;19.17;;;27.90;99.90;;;;;;5035316;28;20037;-70
2023/08/18 12:26:33;;;;;;;23.88;17.25;;;27.80;99.90;;;;;;5022618;28;20418;-71